createdAt,value
2022-11-04T00:05:33.546Z,73.23
2022-11-04T00:15:32.402Z,75.38
2022-11-04T00:25:32.714Z,73.61
2022-11-04T00:35:32.758Z,73.81
2022-11-04T00:45:33.037Z,73.10
2022-11-04T00:55:33.059Z,68.66
2022-11-04T01:05:33.379Z,66.69
2022-11-04T01:15:33.400Z,68.70
2022-11-04T01:25:33.719Z,65.98
2022-11-04T01:35:33.760Z,66.42
2022-11-04T01:45:34.061Z,66.83
2022-11-04T01:55:34.092Z,72.41
2022-11-04T02:05:34.432Z,77.19
2022-11-04T02:15:34.463Z,78.56
2022-11-04T02:25:34.784Z,78.97
2022-11-04T02:35:34.803Z,79.00
2022-11-04T02:45:35.123Z,74.63
2022-11-04T02:55:35.160Z,76.61
2022-11-04T03:05:35.478Z,76.24
2022-11-04T03:15:35.508Z,75.07
2022-11-04T03:25:35.825Z,76.34
2022-11-04T03:35:35.838Z,78.39
2022-11-04T03:45:36.166Z,80.72
2022-11-04T03:55:36.195Z,82.56
2022-11-04T04:05:36.518Z,83.87
2022-11-04T04:15:36.678Z,82.13
2022-11-04T04:25:36.799Z,86.44
2022-11-04T04:35:36.834Z,87.10
2022-11-04T04:45:37.173Z,86.68
2022-11-04T04:55:40.732Z,86.62
2022-11-04T05:05:38.455Z,86.93
2022-11-04T05:15:37.746Z,88.00
2022-11-04T05:25:37.796Z,87.79
2022-11-04T05:35:38.107Z,86.42
2022-11-04T05:45:38.305Z,86.46
2022-11-04T05:55:38.440Z,86.66
2022-11-04T06:05:38.490Z,85.60
2022-11-04T06:15:38.842Z,86.15
2022-11-04T06:25:38.868Z,87.38
2022-11-04T06:35:39.140Z,86.77
2022-11-04T06:45:39.157Z,85.33
2022-11-04T06:55:39.492Z,86.15
2022-11-04T07:05:39.512Z,86.97
2022-11-04T07:15:39.830Z,86.05
2022-11-04T07:25:39.857Z,85.63
2022-11-04T07:35:40.188Z,86.87
2022-11-04T07:45:40.205Z,84.91
2022-11-04T07:55:43.540Z,83.68
2022-11-04T08:05:40.553Z,82.51
2022-11-04T08:15:40.888Z,82.51
2022-11-04T08:25:40.927Z,81.86
2022-11-04T08:35:41.356Z,81.24
2022-11-04T08:45:41.387Z,82.68
2022-11-04T08:55:41.699Z,82.64
2022-11-04T09:05:41.730Z,79.25
2022-11-04T09:15:42.049Z,79.73
2022-11-04T09:25:42.119Z,79.93
2022-11-04T09:35:42.396Z,80.45
2022-11-04T09:45:42.460Z,80.00
2022-11-04T09:55:42.737Z,79.28
2022-11-04T10:05:42.774Z,77.09
2022-11-04T10:15:43.083Z,78.74
2022-11-04T10:25:43.093Z,77.67
2022-11-04T10:35:43.443Z,75.07
2022-11-04T10:45:43.481Z,74.53
2022-11-04T10:55:43.758Z,72.75
2022-11-04T11:05:43.783Z,74.08
2022-11-04T11:15:44.006Z,71.25
2022-11-04T11:25:44.232Z,68.71
2022-11-04T11:35:44.462Z,65.02
2022-11-04T11:45:44.696Z,63.90
2022-11-04T11:55:44.923Z,59.67
2022-11-04T12:15:46.231Z,60.61
2022-11-04T12:25:45.560Z,63.59
2022-11-04T12:35:45.741Z,61.99
2022-11-04T12:45:45.820Z,62.78
2022-11-04T12:55:45.866Z,64.20
2022-11-04T13:05:46.168Z,63.57
2022-11-04T13:15:46.191Z,62.96
2022-11-04T13:25:46.537Z,64.07
2022-11-04T13:35:46.554Z,66.07
2022-11-04T13:45:51.503Z,67.49
2022-11-04T13:55:46.912Z,65.43
2022-11-04T14:05:47.211Z,64.20
2022-11-04T14:15:47.236Z,65.46
2022-11-04T14:25:47.572Z,68.34
2022-11-04T14:35:47.676Z,69.19
2022-11-04T14:45:47.811Z,68.81
2022-11-04T14:55:47.852Z,69.35
2022-11-04T15:05:50.704Z,71.43
2022-11-04T15:15:48.353Z,73.91
2022-11-04T15:25:48.614Z,74.01
2022-11-04T15:35:48.992Z,73.50
2022-11-04T15:45:49.086Z,75.04
2022-11-04T15:55:49.105Z,73.94
2022-11-04T16:05:49.525Z,74.46
2022-11-04T16:15:49.597Z,72.55
2022-11-04T16:25:50.084Z,72.17
2022-11-04T16:35:49.981Z,74.93
2022-11-04T16:45:53.879Z,74.93
2022-11-04T16:55:50.550Z,78.34
2022-11-04T17:05:50.578Z,77.73
2022-11-04T17:15:50.586Z,77.63
2022-11-04T17:25:51.121Z,77.53
2022-11-04T17:35:51.162Z,77.39
2022-11-04T17:45:51.270Z,77.39
2022-11-04T17:55:51.494Z,78.01
2022-11-04T18:05:51.837Z,92.11
2022-11-04T18:15:51.891Z,76.61
2022-11-04T18:25:52.418Z,76.43
2022-11-04T18:35:52.337Z,77.50
2022-11-04T18:45:52.767Z,77.05
2022-11-04T18:55:52.955Z,76.37
2022-11-04T19:05:52.976Z,78.66
2022-11-04T19:15:53.831Z,78.08
2022-11-04T19:25:56.859Z,78.80
2022-11-04T19:35:54.482Z,79.00
2022-11-04T19:45:53.689Z,79.27
2022-11-04T19:55:53.776Z,78.35
2022-11-04T20:05:54.175Z,77.94
2022-11-04T20:15:54.340Z,78.39
2022-11-04T20:26:01.244Z,84.99
2022-11-04T20:35:54.530Z,87.38
2022-11-04T20:45:54.911Z,91.53
2022-11-04T20:55:55.159Z,92.86
2022-11-04T21:05:55.209Z,94.10
2022-11-04T21:15:55.257Z,94.96
2022-11-04T21:25:55.533Z,96.30
2022-11-04T21:35:55.575Z,96.55
2022-11-04T21:45:55.873Z,96.34
2022-11-04T21:55:56.069Z,96.85
2022-11-04T22:05:56.221Z,97.31
2022-11-04T22:15:56.261Z,97.52
2022-11-04T22:25:56.586Z,97.82
2022-11-04T22:35:56.606Z,97.77
2022-11-04T22:45:56.925Z,97.36
2022-11-04T22:55:56.941Z,95.50
2022-11-04T23:05:57.279Z,96.18
2022-11-04T23:15:57.307Z,96.84
2022-11-04T23:25:57.619Z,97.25
2022-11-04T23:35:57.644Z,97.05
2022-11-04T23:45:57.994Z,97.25
2022-11-04T23:55:58.016Z,96.64
